createdAt,value
2022-10-22T00:02:24.120Z,16.40
2022-10-22T00:05:10.828Z,16.50
2022-10-22T00:07:56.226Z,16.50
2022-10-22T00:10:42.726Z,16.50
2022-10-22T00:13:28.326Z,16.60
2022-10-22T00:16:14.126Z,16.50
2022-10-22T00:18:59.989Z,16.60
2022-10-22T00:21:45.595Z,16.60
2022-10-22T00:24:31.332Z,16.60
2022-10-22T00:27:16.846Z,16.60
2022-10-22T00:30:02.837Z,16.60
2022-10-22T00:32:48.251Z,16.50
2022-10-22T00:35:33.655Z,16.50
2022-10-22T00:38:19.455Z,16.40
2022-10-22T00:41:05.009Z,16.40
2022-10-22T00:43:55.809Z,16.40
2022-10-22T00:46:41.430Z,16.40
2022-10-22T00:49:27.146Z,16.30
2022-10-22T00:52:13.808Z,16.30
2022-10-22T00:55:01.014Z,16.40
2022-10-22T00:57:47.489Z,16.40
2022-10-22T01:00:33.272Z,16.30
2022-10-22T01:03:19.171Z,16.30
2022-10-22T01:06:05.946Z,16.30
2022-10-22T01:09:25.502Z,16.30
2022-10-22T01:12:19.635Z,16.20
2022-10-22T01:15:45.821Z,16.30
2022-10-22T01:18:50.235Z,16.30
2022-10-22T01:21:58.661Z,16.20
2022-10-22T01:25:08.630Z,16.30
2022-10-22T01:28:00.173Z,16.20
2022-10-22T01:30:49.222Z,16.30
2022-10-22T01:33:36.171Z,16.30
2022-10-22T01:36:22.283Z,16.20
2022-10-22T01:39:09.137Z,16.20
2022-10-22T01:41:56.654Z,16.20
2022-10-22T01:44:42.315Z,16.20
2022-10-22T01:47:47.931Z,16.20
2022-10-22T01:50:48.913Z,16.20
2022-10-22T01:53:50.134Z,16.20
2022-10-22T01:56:57.310Z,16.20
2022-10-22T01:59:52.685Z,16.10
2022-10-22T02:05:49.506Z,16.10
2022-10-22T02:08:36.480Z,16.10
2022-10-22T02:11:22.234Z,16.10
2022-10-22T02:14:09.171Z,16.00
2022-10-22T02:16:57.405Z,16.10
2022-10-22T02:19:55.122Z,16.00
2022-10-22T02:22:41.889Z,16.00
2022-10-22T02:25:32.651Z,16.00
2022-10-22T02:28:32.128Z,16.00
2022-10-22T02:31:24.577Z,16.00
2022-10-22T02:34:14.678Z,16.00
2022-10-22T02:37:02.197Z,16.10
2022-10-22T02:39:48.234Z,16.00
2022-10-22T02:42:35.177Z,16.00
2022-10-22T02:45:21.602Z,16.00
2022-10-22T02:48:07.543Z,16.00
2022-10-22T02:50:53.438Z,16.10
2022-10-22T02:53:38.910Z,16.10
2022-10-22T02:56:24.971Z,16.00
2022-10-22T02:59:10.572Z,16.00
2022-10-22T03:01:56.123Z,16.00
2022-10-22T03:04:42.158Z,16.00
2022-10-22T03:07:28.092Z,16.00
2022-10-22T03:10:13.872Z,16.00
2022-10-22T03:12:59.490Z,15.90
2022-10-22T03:15:45.218Z,16.00
2022-10-22T03:18:31.013Z,15.90
2022-10-22T03:21:25.969Z,15.90
2022-10-22T03:24:16.831Z,15.90
2022-10-22T03:27:02.544Z,15.90
2022-10-22T03:29:50.326Z,15.90
2022-10-22T03:32:35.859Z,15.90
2022-10-22T03:35:21.813Z,15.90
2022-10-22T03:38:07.212Z,15.80
2022-10-22T03:40:53.346Z,15.80
2022-10-22T03:43:40.874Z,15.80
2022-10-22T03:46:26.651Z,15.80
2022-10-22T03:49:12.353Z,15.70
2022-10-22T03:51:58.225Z,15.80
2022-10-22T03:54:44.176Z,15.70
2022-10-22T03:57:30.125Z,15.80
2022-10-22T04:00:16.130Z,15.80
2022-10-22T04:03:02.019Z,15.90
2022-10-22T04:05:47.748Z,15.90
2022-10-22T04:08:34.323Z,15.80
2022-10-22T04:11:19.822Z,15.80
2022-10-22T04:14:05.878Z,15.80
2022-10-22T04:16:51.321Z,15.70
2022-10-22T04:19:37.111Z,15.80
2022-10-22T04:22:22.728Z,15.70
2022-10-22T04:25:08.422Z,15.70
2022-10-22T04:27:53.890Z,15.70
2022-10-22T04:30:39.726Z,15.70
2022-10-22T04:33:25.584Z,15.80
2022-10-22T04:36:17.333Z,15.70
2022-10-22T04:39:04.713Z,15.80
2022-10-22T04:41:50.127Z,15.80
2022-10-22T04:44:35.751Z,15.80
2022-10-22T04:47:21.519Z,15.80
2022-10-22T04:50:07.479Z,15.90
2022-10-22T04:52:52.949Z,15.90
2022-10-22T04:55:38.707Z,15.80
2022-10-22T04:58:24.378Z,15.80
2022-10-22T05:01:24.339Z,15.80
2022-10-22T05:04:14.595Z,15.80
2022-10-22T05:07:00.088Z,15.80
2022-10-22T05:09:45.807Z,15.80
2022-10-22T05:12:31.482Z,15.80
2022-10-22T05:15:17.371Z,15.80
2022-10-22T05:18:03.106Z,15.80
2022-10-22T05:20:48.617Z,15.80
2022-10-22T05:23:34.119Z,15.80
2022-10-22T05:26:21.297Z,15.80
2022-10-22T05:29:07.884Z,15.80
2022-10-22T05:31:53.696Z,15.80
2022-10-22T05:34:39.470Z,15.80
2022-10-22T05:37:25.038Z,15.80
2022-10-22T05:40:19.536Z,15.80
2022-10-22T05:43:12.822Z,15.80
2022-10-22T05:46:03.807Z,15.90
2022-10-22T05:48:58.281Z,15.90
2022-10-22T05:51:44.317Z,15.90
2022-10-22T05:54:30.297Z,15.90
2022-10-22T05:57:15.982Z,15.90
2022-10-22T06:00:01.966Z,15.90
2022-10-22T06:02:51.238Z,16.00
2022-10-22T06:05:37.910Z,16.00
2022-10-22T06:08:23.886Z,16.00
2022-10-22T06:11:09.682Z,16.00
2022-10-22T06:13:55.268Z,16.10
2022-10-22T06:17:14.030Z,16.10
2022-10-22T06:19:59.883Z,16.10
2022-10-22T06:22:45.576Z,16.10
2022-10-22T06:25:31.039Z,16.10
2022-10-22T06:28:16.547Z,16.10
2022-10-22T06:31:05.019Z,16.20
2022-10-22T06:33:50.730Z,16.20
2022-10-22T06:36:36.628Z,16.20
2022-10-22T06:39:22.276Z,16.30
2022-10-22T06:42:08.024Z,16.40
2022-10-22T06:44:53.629Z,16.40
2022-10-22T06:47:39.800Z,16.50
2022-10-22T06:50:25.410Z,16.50
2022-10-22T06:53:11.159Z,16.60
2022-10-22T06:55:56.981Z,16.70
2022-10-22T06:58:42.547Z,16.80
2022-10-22T07:01:31.467Z,17.00
2022-10-22T07:04:17.509Z,17.10
2022-10-22T07:07:06.280Z,17.20
2022-10-22T07:09:51.911Z,17.30
2022-10-22T07:12:40.070Z,17.30
2022-10-22T07:15:25.878Z,17.40
2022-10-22T07:18:11.626Z,18.40
2022-10-22T07:20:57.481Z,17.60
2022-10-22T07:23:43.742Z,17.80
2022-10-22T07:26:32.456Z,17.90
2022-10-22T07:29:18.497Z,18.00
2022-10-22T07:32:04.278Z,18.10
2022-10-22T07:34:49.750Z,18.10
2022-10-22T07:37:35.430Z,18.10
2022-10-22T07:40:20.840Z,18.20
2022-10-22T07:43:06.898Z,18.20
2022-10-22T07:45:53.035Z,18.30
2022-10-22T07:48:39.237Z,18.40
2022-10-22T07:51:24.658Z,18.40
2022-10-22T07:54:10.199Z,18.40
2022-10-22T07:56:55.893Z,18.50
2022-10-22T07:59:41.484Z,18.60
2022-10-22T08:02:27.192Z,18.60
2022-10-22T08:05:16.538Z,18.60
2022-10-22T08:08:02.239Z,18.50
2022-10-22T08:10:50.774Z,18.50
2022-10-22T08:13:37.488Z,18.40
2022-10-22T08:16:25.360Z,18.30
2022-10-22T08:19:10.985Z,18.30
2022-10-22T08:21:56.762Z,18.30
2022-10-22T08:24:42.445Z,18.30
2022-10-22T08:27:28.129Z,18.30
2022-10-22T08:30:14.963Z,18.30
2022-10-22T08:33:00.343Z,18.30
2022-10-22T08:35:50.257Z,18.30
2022-10-22T08:38:36.022Z,18.30
2022-10-22T08:41:23.668Z,18.30
2022-10-22T08:44:31.380Z,18.40
2022-10-22T08:47:25.038Z,18.50
2022-10-22T08:50:14.909Z,18.60
2022-10-22T08:53:06.499Z,18.70
2022-10-22T08:55:54.419Z,18.70
2022-10-22T08:59:17.381Z,18.70
2022-10-22T09:02:14.622Z,18.70
2022-10-22T09:05:12.497Z,18.80
2022-10-22T09:07:58.053Z,18.90
2022-10-22T09:10:50.610Z,19.00
2022-10-22T09:13:35.867Z,19.20
2022-10-22T09:16:24.248Z,19.20
2022-10-22T09:19:18.551Z,19.20
2022-10-22T09:22:18.109Z,19.20
2022-10-22T09:25:36.822Z,19.20
2022-10-22T09:28:22.566Z,19.20
2022-10-22T09:31:13.503Z,19.20
2022-10-22T09:34:05.780Z,19.30
2022-10-22T09:36:59.599Z,19.30
2022-10-22T09:40:03.694Z,19.30
2022-10-22T09:42:50.047Z,19.40
2022-10-22T09:45:35.653Z,19.60
2022-10-22T09:48:28.440Z,19.70
2022-10-22T09:51:35.709Z,19.90
2022-10-22T09:54:33.310Z,19.90
2022-10-22T09:57:22.463Z,20.10
2022-10-22T10:00:12.463Z,20.30
2022-10-22T10:03:00.414Z,20.40
2022-10-22T10:06:00.177Z,20.40
2022-10-22T10:08:49.463Z,20.40
2022-10-22T10:11:48.869Z,20.40
2022-10-22T10:14:41.217Z,20.60
2022-10-22T10:17:30.191Z,20.70
2022-10-22T10:20:27.514Z,20.80
2022-10-22T10:23:28.699Z,20.90
2022-10-22T10:26:37.558Z,20.90
2022-10-22T10:29:50.676Z,20.90
2022-10-22T10:33:05.510Z,20.80
2022-10-22T10:36:03.861Z,20.80
2022-10-22T10:39:10.140Z,20.80
2022-10-22T10:42:12.663Z,20.90
2022-10-22T10:45:30.157Z,21.00
2022-10-22T10:48:46.488Z,21.00
2022-10-22T10:52:01.437Z,21.00
2022-10-22T10:55:09.483Z,20.90
2022-10-22T10:58:30.627Z,20.90
2022-10-22T11:01:30.936Z,21.10
2022-10-22T11:04:47.079Z,21.10
2022-10-22T11:08:00.768Z,21.20
2022-10-22T11:11:06.294Z,21.30
2022-10-22T11:14:11.274Z,21.20
2022-10-22T11:17:15.059Z,21.20
2022-10-22T11:20:32.827Z,21.40
2022-10-22T11:23:38.812Z,21.50
2022-10-22T11:26:36.105Z,21.50
2022-10-22T11:29:32.842Z,21.40
2022-10-22T11:32:20.957Z,21.40
2022-10-22T11:35:12.851Z,21.40
2022-10-22T11:37:59.233Z,21.40
2022-10-22T11:40:59.614Z,21.50
2022-10-22T11:44:03.513Z,21.60
2022-10-22T11:47:09.067Z,21.70
2022-10-22T11:50:16.483Z,21.70
2022-10-22T11:53:13.044Z,21.70
2022-10-22T11:56:09.915Z,21.70
2022-10-22T11:58:55.736Z,21.60
2022-10-22T12:01:47.792Z,21.70
2022-10-22T12:04:42.017Z,21.80
2022-10-22T12:07:54.861Z,21.90
2022-10-22T12:11:02.827Z,22.10
2022-10-22T12:14:13.471Z,22.30
2022-10-22T12:17:05.416Z,22.30
2022-10-22T12:20:02.120Z,22.40
2022-10-22T12:22:48.733Z,22.40
2022-10-22T12:25:36.534Z,22.40
2022-10-22T12:28:22.905Z,22.30
2022-10-22T12:31:25.246Z,22.20
2022-10-22T12:34:16.225Z,22.20
2022-10-22T12:37:05.082Z,22.10
2022-10-22T12:39:51.538Z,22.00
2022-10-22T12:42:38.344Z,21.90
2022-10-22T12:45:27.211Z,21.80
2022-10-22T12:48:29.376Z,21.80
2022-10-22T12:51:20.442Z,21.70
2022-10-22T12:54:28.357Z,21.60
2022-10-22T12:57:18.396Z,21.60
2022-10-22T13:00:04.559Z,21.50
2022-10-22T13:02:50.631Z,21.40
2022-10-22T13:05:39.229Z,21.40
2022-10-22T13:08:29.141Z,21.40
2022-10-22T13:11:21.010Z,21.30
2022-10-22T13:14:21.875Z,21.30
2022-10-22T13:17:07.293Z,21.30
2022-10-22T13:19:53.042Z,21.20
2022-10-22T13:22:41.125Z,21.20
2022-10-22T13:25:33.870Z,21.10
2022-10-22T13:28:22.085Z,21.10
2022-10-22T13:31:36.294Z,21.10
2022-10-22T13:34:25.654Z,21.10
2022-10-22T13:37:11.520Z,21.20
2022-10-22T13:39:57.282Z,21.20
2022-10-22T13:42:43.417Z,21.20
2022-10-22T13:45:29.210Z,21.20
2022-10-22T13:48:22.039Z,21.20
2022-10-22T13:51:15.668Z,21.20
2022-10-22T13:54:01.610Z,21.20
2022-10-22T13:56:47.478Z,21.20
2022-10-22T13:59:33.154Z,21.10
2022-10-22T14:02:19.975Z,21.10
2022-10-22T14:05:09.343Z,21.10
2022-10-22T14:07:55.239Z,21.10
2022-10-22T14:10:40.903Z,21.10
2022-10-22T14:13:26.810Z,21.10
2022-10-22T14:16:21.520Z,21.10
2022-10-22T14:19:11.254Z,21.10
2022-10-22T14:21:57.292Z,21.10
2022-10-22T14:24:43.314Z,21.10
2022-10-22T14:27:29.149Z,21.10
2022-10-22T14:30:24.866Z,21.10
2022-10-22T14:33:18.062Z,21.00
2022-10-22T14:36:03.879Z,21.00
2022-10-22T14:38:49.728Z,21.00
2022-10-22T14:41:36.611Z,20.90
2022-10-22T14:44:22.074Z,20.80
2022-10-22T14:47:08.104Z,20.80
2022-10-22T14:49:53.618Z,20.80
2022-10-22T14:52:39.635Z,20.80
2022-10-22T14:55:27.131Z,20.80
2022-10-22T14:58:13.578Z,20.80
2022-10-22T15:01:02.297Z,20.80
2022-10-22T15:03:47.907Z,20.70
2022-10-22T15:06:33.761Z,20.70
2022-10-22T15:09:19.712Z,20.70
2022-10-22T15:12:05.551Z,20.70
2022-10-22T15:14:51.148Z,20.70
2022-10-22T15:17:38.233Z,20.60
2022-10-22T15:20:24.089Z,20.60
2022-10-22T15:23:09.682Z,20.60
2022-10-22T15:25:56.129Z,20.60
2022-10-22T15:28:42.502Z,20.50
2022-10-22T15:31:47.184Z,20.50
2022-10-22T15:34:34.601Z,20.50
2022-10-22T15:37:20.802Z,20.50
2022-10-22T15:40:08.628Z,20.40
2022-10-22T15:42:54.012Z,20.40
2022-10-22T15:45:40.126Z,20.40
2022-10-22T15:48:25.930Z,20.40
2022-10-22T15:51:14.330Z,20.30
2022-10-22T15:53:59.901Z,20.30
2022-10-22T15:56:45.426Z,20.30
2022-10-22T15:59:31.463Z,20.20
2022-10-22T16:02:17.001Z,20.20
2022-10-22T16:05:02.646Z,20.20
2022-10-22T16:07:48.389Z,20.10
2022-10-22T16:10:34.186Z,20.10
2022-10-22T16:13:21.654Z,20.10
2022-10-22T16:16:10.449Z,20.00
2022-10-22T16:18:56.602Z,20.00
2022-10-22T16:21:42.461Z,20.00
2022-10-22T16:24:28.034Z,20.00
2022-10-22T16:27:13.738Z,19.90
2022-10-22T16:29:59.387Z,19.90
2022-10-22T16:32:45.117Z,19.90
2022-10-22T16:35:31.082Z,19.90
2022-10-22T16:38:17.435Z,19.90
2022-10-22T16:41:14.098Z,19.80
2022-10-22T16:44:02.322Z,19.80
2022-10-22T16:46:48.347Z,19.70
2022-10-22T16:49:34.138Z,19.70
2022-10-22T16:52:19.936Z,19.70
2022-10-22T16:55:06.067Z,19.70
2022-10-22T16:57:53.346Z,19.70
2022-10-22T17:00:39.125Z,19.60
2022-10-22T17:03:27.536Z,19.60
2022-10-22T17:06:14.794Z,19.60
2022-10-22T17:09:00.830Z,19.50
2022-10-22T17:11:47.388Z,19.50
2022-10-22T17:14:32.941Z,19.40
2022-10-22T17:17:18.606Z,19.40
2022-10-22T17:20:05.323Z,19.40
2022-10-22T17:22:50.947Z,19.30
2022-10-22T17:25:43.615Z,19.30
2022-10-22T17:28:30.204Z,19.20
2022-10-22T17:31:22.993Z,19.20
2022-10-22T17:34:14.683Z,19.10
2022-10-22T17:37:00.271Z,19.10
2022-10-22T17:39:46.377Z,19.10
2022-10-22T17:42:32.210Z,19.00
2022-10-22T17:45:17.895Z,19.00
2022-10-22T17:48:03.586Z,19.00
2022-10-22T17:50:51.443Z,18.90
2022-10-22T17:53:48.118Z,18.80
2022-10-22T17:56:33.729Z,18.80
2022-10-22T17:59:19.894Z,18.80
2022-10-22T18:02:05.538Z,18.70
2022-10-22T18:04:52.446Z,18.70
2022-10-22T18:07:38.990Z,18.70
2022-10-22T18:10:25.097Z,18.70
2022-10-22T18:13:13.633Z,18.70
2022-10-22T18:15:59.086Z,18.60
2022-10-22T18:18:49.326Z,18.70
2022-10-22T18:21:35.233Z,18.60
2022-10-22T18:24:20.833Z,18.60
2022-10-22T18:27:06.677Z,18.60
2022-10-22T18:29:52.245Z,18.50
2022-10-22T18:32:38.179Z,18.50
2022-10-22T18:35:23.733Z,18.50
2022-10-22T18:38:13.190Z,18.40
2022-10-22T18:40:59.019Z,18.40
2022-10-22T18:43:44.592Z,18.40
2022-10-22T18:46:32.307Z,18.30
2022-10-22T18:49:19.506Z,18.20
2022-10-22T18:52:05.339Z,18.20
2022-10-22T18:54:50.854Z,18.20
2022-10-22T18:57:36.359Z,18.10
2022-10-22T19:00:22.278Z,18.10
2022-10-22T19:03:10.679Z,18.10
2022-10-22T19:05:59.942Z,18.00
2022-10-22T19:08:51.292Z,18.00
2022-10-22T19:11:37.245Z,18.00
2022-10-22T19:14:22.986Z,18.00
2022-10-22T19:17:08.681Z,17.90
2022-10-22T19:19:54.210Z,17.90
2022-10-22T19:22:39.897Z,17.90
2022-10-22T19:25:25.998Z,17.80
2022-10-22T19:28:11.463Z,17.80
2022-10-22T19:30:58.715Z,17.80
2022-10-22T19:33:44.708Z,17.80
2022-10-22T19:36:32.795Z,17.70
2022-10-22T19:39:18.864Z,17.70
2022-10-22T19:42:04.592Z,17.70
2022-10-22T19:44:49.976Z,17.70
2022-10-22T19:47:36.335Z,17.70
2022-10-22T19:50:21.765Z,17.60
2022-10-22T19:53:07.442Z,17.60
2022-10-22T19:55:53.844Z,17.70
2022-10-22T19:58:39.562Z,17.60
2022-10-22T20:01:26.212Z,17.60
2022-10-22T20:04:16.509Z,17.60
2022-10-22T20:07:02.647Z,17.60
2022-10-22T20:09:48.063Z,17.60
2022-10-22T20:12:33.822Z,17.60
2022-10-22T20:15:21.470Z,17.50
2022-10-22T20:18:07.155Z,17.50
2022-10-22T20:20:53.050Z,17.50
2022-10-22T20:23:38.310Z,17.50
2022-10-22T20:26:27.792Z,17.50
2022-10-22T20:29:15.606Z,17.40
2022-10-22T20:32:02.389Z,17.40
2022-10-22T20:34:49.992Z,17.50
2022-10-22T20:37:35.585Z,17.40
2022-10-22T20:40:21.182Z,17.40
2022-10-22T20:43:09.502Z,17.40
2022-10-22T20:45:57.494Z,17.40
2022-10-22T20:48:43.218Z,17.40
2022-10-22T20:51:29.313Z,17.40
2022-10-22T20:54:16.157Z,17.40
2022-10-22T20:57:01.972Z,17.40
2022-10-22T20:59:47.463Z,17.30
2022-10-22T21:02:34.408Z,17.30
2022-10-22T21:05:20.365Z,17.20
2022-10-22T21:08:06.297Z,17.20
2022-10-22T21:10:52.256Z,17.20
2022-10-22T21:13:37.757Z,17.10
2022-10-22T21:16:23.469Z,17.10
2022-10-22T21:19:09.281Z,17.10
2022-10-22T21:21:55.164Z,17.10
2022-10-22T21:24:41.216Z,17.10
2022-10-22T21:27:26.518Z,17.10
2022-10-22T21:30:12.934Z,17.00
2022-10-22T21:32:58.345Z,17.00
2022-10-22T21:35:52.954Z,17.00
2022-10-22T21:38:38.708Z,17.00
2022-10-22T21:41:24.891Z,16.90
2022-10-22T21:44:10.732Z,16.90
2022-10-22T21:46:56.121Z,16.90
2022-10-22T21:49:42.278Z,16.90
2022-10-22T21:52:27.686Z,16.80
2022-10-22T21:55:13.589Z,16.80
2022-10-22T21:57:59.267Z,16.80
2022-10-22T22:00:54.453Z,16.80
2022-10-22T22:03:45.620Z,16.80
2022-10-22T22:06:33.424Z,16.70
2022-10-22T22:09:20.214Z,16.70
2022-10-22T22:12:06.303Z,16.70
2022-10-22T22:14:51.606Z,16.70
2022-10-22T22:17:37.324Z,16.70
2022-10-22T22:20:23.335Z,16.70
2022-10-22T22:23:08.694Z,16.70
2022-10-22T22:25:58.935Z,16.70
2022-10-22T22:28:44.815Z,16.60
2022-10-22T22:31:32.806Z,16.60
2022-10-22T22:34:18.581Z,16.60
2022-10-22T22:37:04.283Z,16.60
2022-10-22T22:39:49.813Z,16.60
2022-10-22T22:42:35.637Z,16.60
2022-10-22T22:45:20.957Z,16.30
2022-10-22T22:48:06.846Z,16.60
2022-10-22T22:50:52.745Z,16.60
2022-10-22T22:53:38.106Z,16.60
2022-10-22T22:56:26.814Z,16.50
2022-10-22T22:59:12.558Z,16.50
2022-10-22T23:01:58.389Z,16.50
2022-10-22T23:04:44.381Z,16.50
2022-10-22T23:07:29.972Z,16.40
2022-10-22T23:10:15.589Z,16.40
2022-10-22T23:13:01.289Z,16.40
2022-10-22T23:15:46.871Z,16.40
2022-10-22T23:18:32.743Z,16.40
2022-10-22T23:21:20.939Z,16.40
2022-10-22T23:24:11.138Z,16.40
2022-10-22T23:27:01.771Z,16.40
2022-10-22T23:29:47.646Z,16.40
2022-10-22T23:32:33.173Z,16.30
2022-10-22T23:35:18.907Z,16.30
2022-10-22T23:38:04.931Z,16.20
2022-10-22T23:40:57.341Z,16.20
2022-10-22T23:43:43.106Z,16.20
2022-10-22T23:46:28.948Z,16.20
2022-10-22T23:49:15.231Z,16.20
2022-10-22T23:52:01.136Z,16.20
2022-10-22T23:54:48.302Z,16.20
2022-10-22T23:57:33.984Z,16.20
